Aqua Ramon, Colorado
Current Conditions -  °F | °C
As of 4:50 PM on Monday 20 Oct 2014 (Local Time) from KRCV Reporting Station
Moderate Rain Moderate Rain  
Wind Chill: 12°   Ceiling: 7500
Heat Index: 12°   Visibility: 10mi
Dew Point:   Wind: 25mph
Humidity: 50%   Direction: 250°WSW
Pressure: 30.28"   Gusts: 31mph
Location:  37.6359°N, 106.449°W
Report Text: KRCV 202250Z AUTO 25022G27KT 10SM RA BKN075 OVC085 12/02 A3028 RMK AO2 T01220020
Loading
Personal Weather Stations






























Interactive Weather Map
Tropical Storm Tracking
New forecast layout! Learn more

10-Day Weather Forecast

Advertisements
Track Severe Weather on mobile